sensor_id;sensor_type;location;lat;lon;timestamp;P1;durP1;ratioP1;P2;durP2;ratioP2
1376;SDS011;682;52.502;13.488;2023-05-10T00:02:09;7.17;;;6.47;;
1376;SDS011;682;52.502;13.488;2023-05-10T00:04:36;7.37;;;6.67;;
1376;SDS011;682;52.502;13.488;2023-05-10T00:07:10;7.40;;;6.77;;
1376;SDS011;682;52.502;13.488;2023-05-10T00:09:38;8.50;;;7.30;;
1376;SDS011;682;52.502;13.488;2023-05-10T00:12:07;8.30;;;7.60;;
1376;SDS011;682;52.502;13.488;2023-05-10T00:14:40;7.67;;;7.07;;
1376;SDS011;682;52.502;13.488;2023-05-10T00:17:10;7.77;;;6.93;;
1376;SDS011;682;52.502;13.488;2023-05-10T00:19:39;8.10;;;7.30;;
1376;SDS011;682;52.502;13.488;2023-05-10T00:22:09;7.87;;;7.07;;
1376;SDS011;682;52.502;13.488;2023-05-10T00:24:37;8.30;;;6.70;;
1376;SDS011;682;52.502;13.488;2023-05-10T00:27:08;8.33;;;7.37;;
1376;SDS011;682;52.502;13.488;2023-05-10T00:29:49;7.47;;;6.87;;
1376;SDS011;682;52.502;13.488;2023-05-10T00:32:19;7.50;;;6.90;;
1376;SDS011;682;52.502;13.488;2023-05-10T00:34:59;7.60;;;7.00;;
1376;SDS011;682;52.502;13.488;2023-05-10T00:37:40;8.10;;;7.20;;
1376;SDS011;682;52.502;13.488;2023-05-10T00:40:13;7.60;;;6.53;;
1376;SDS011;682;52.502;13.488;2023-05-10T00:42:44;8.13;;;7.37;;
1376;SDS011;682;52.502;13.488;2023-05-10T00:45:17;8.50;;;7.67;;
1376;SDS011;682;52.502;13.488;2023-05-10T00:47:52;7.60;;;6.90;;
1376;SDS011;682;52.502;13.488;2023-05-10T00:50:21;8.33;;;7.63;;
1376;SDS011;682;52.502;13.488;2023-05-10T00:52:49;8.53;;;7.73;;
1376;SDS011;682;52.502;13.488;2023-05-10T00:55:17;8.47;;;7.77;;
1376;SDS011;682;52.502;13.488;2023-05-10T00:57:48;7.50;;;6.80;;
1376;SDS011;682;52.502;13.488;2023-05-10T01:00:24;8.50;;;7.67;;
1376;SDS011;682;52.502;13.488;2023-05-10T01:02:53;7.20;;;6.60;;
1376;SDS011;682;52.502;13.488;2023-05-10T01:05:20;7.67;;;7.07;;
1376;SDS011;682;52.502;13.488;2023-05-10T01:07:48;7.97;;;7.20;;
1376;SDS011;682;52.502;13.488;2023-05-10T01:10:15;7.90;;;7.10;;
1376;SDS011;682;52.502;13.488;2023-05-10T01:12:43;7.87;;;7.27;;
1376;SDS011;682;52.502;13.488;2023-05-10T01:15:12;7.37;;;6.83;;
1376;SDS011;682;52.502;13.488;2023-05-10T01:17:44;7.97;;;7.27;;
1376;SDS011;682;52.502;13.488;2023-05-10T01:20:14;7.77;;;6.97;;
1376;SDS011;682;52.502;13.488;2023-05-10T01:22:49;9.33;;;8.20;;
1376;SDS011;682;52.502;13.488;2023-05-10T01:25:42;9.03;;;7.57;;
1376;SDS011;682;52.502;13.488;2023-05-10T01:28:39;7.80;;;7.17;;
1376;SDS011;682;52.502;13.488;2023-05-10T01:31:30;7.83;;;7.27;;
1376;SDS011;682;52.502;13.488;2023-05-10T01:34:11;8.67;;;7.97;;
1376;SDS011;682;52.502;13.488;2023-05-10T01:36:43;7.80;;;7.10;;
1376;SDS011;682;52.502;13.488;2023-05-10T01:39:17;7.90;;;7.20;;
1376;SDS011;682;52.502;13.488;2023-05-10T01:41:51;8.53;;;7.73;;
1376;SDS011;682;52.502;13.488;2023-05-10T01:44:23;7.80;;;7.10;;
1376;SDS011;682;52.502;13.488;2023-05-10T01:46:57;7.97;;;7.27;;
1376;SDS011;682;52.502;13.488;2023-05-10T01:49:31;7.23;;;6.73;;
1376;SDS011;682;52.502;13.488;2023-05-10T01:52:04;8.90;;;7.67;;
1376;SDS011;682;52.502;13.488;2023-05-10T01:54:34;8.73;;;7.83;;
1376;SDS011;682;52.502;13.488;2023-05-10T01:57:05;7.93;;;7.23;;
1376;SDS011;682;52.502;13.488;2023-05-10T01:59:35;7.37;;;6.77;;
1376;SDS011;682;52.502;13.488;2023-05-10T02:02:06;8.43;;;7.63;;
1376;SDS011;682;52.502;13.488;2023-05-10T02:04:38;8.63;;;7.93;;
1376;SDS011;682;52.502;13.488;2023-05-10T02:07:06;7.97;;;7.20;;
1376;SDS011;682;52.502;13.488;2023-05-10T02:09:35;9.10;;;8.07;;
1376;SDS011;682;52.502;13.488;2023-05-10T02:12:03;8.27;;;7.60;;
1376;SDS011;682;52.502;13.488;2023-05-10T02:14:34;8.90;;;7.97;;
1376;SDS011;682;52.502;13.488;2023-05-10T02:17:03;7.93;;;7.13;;
1376;SDS011;682;52.502;13.488;2023-05-10T02:19:32;8.33;;;7.53;;
1376;SDS011;682;52.502;13.488;2023-05-10T02:22:03;7.70;;;7.10;;
1376;SDS011;682;52.502;13.488;2023-05-10T02:24:31;8.30;;;7.60;;
1376;SDS011;682;52.502;13.488;2023-05-10T02:26:59;8.50;;;7.63;;
1376;SDS011;682;52.502;13.488;2023-05-10T02:29:29;8.07;;;7.37;;
1376;SDS011;682;52.502;13.488;2023-05-10T02:31:57;8.43;;;7.23;;
1376;SDS011;682;52.502;13.488;2023-05-10T02:34:26;7.90;;;6.70;;
1376;SDS011;682;52.502;13.488;2023-05-10T02:36:54;7.97;;;7.30;;
1376;SDS011;682;52.502;13.488;2023-05-10T02:39:23;8.53;;;7.70;;
1376;SDS011;682;52.502;13.488;2023-05-10T02:41:53;7.60;;;6.87;;
1376;SDS011;682;52.502;13.488;2023-05-10T02:44:23;9.50;;;7.87;;
1376;SDS011;682;52.502;13.488;2023-05-10T02:46:56;7.70;;;6.67;;
1376;SDS011;682;52.502;13.488;2023-05-10T02:49:23;8.10;;;6.70;;
1376;SDS011;682;52.502;13.488;2023-05-10T02:51:51;11.67;;;7.70;;
1376;SDS011;682;52.502;13.488;2023-05-10T02:54:28;9.07;;;7.07;;
1376;SDS011;682;52.502;13.488;2023-05-10T02:56:58;7.87;;;6.67;;
1376;SDS011;682;52.502;13.488;2023-05-10T02:59:30;8.13;;;7.33;;
1376;SDS011;682;52.502;13.488;2023-05-10T03:01:58;7.73;;;7.03;;
1376;SDS011;682;52.502;13.488;2023-05-10T03:04:26;7.17;;;6.47;;
1376;SDS011;682;52.502;13.488;2023-05-10T03:06:53;8.47;;;7.77;;
1376;SDS011;682;52.502;13.488;2023-05-10T03:09:21;7.20;;;6.50;;
1376;SDS011;682;52.502;13.488;2023-05-10T03:11:55;7.17;;;6.57;;
1376;SDS011;682;52.502;13.488;2023-05-10T03:14:33;8.93;;;6.17;;
1376;SDS011;682;52.502;13.488;2023-05-10T03:17:10;8.10;;;7.30;;
1376;SDS011;682;52.502;13.488;2023-05-10T03:19:53;11.40;;;8.87;;
1376;SDS011;682;52.502;13.488;2023-05-10T03:22:23;8.00;;;6.90;;
1376;SDS011;682;52.502;13.488;2023-05-10T03:24:53;8.50;;;7.70;;
1376;SDS011;682;52.502;13.488;2023-05-10T03:27:23;12.37;;;8.20;;
1376;SDS011;682;52.502;13.488;2023-05-10T03:29:54;8.47;;;7.00;;
1376;SDS011;682;52.502;13.488;2023-05-10T03:32:23;8.67;;;7.87;;
1376;SDS011;682;52.502;13.488;2023-05-10T03:34:52;9.87;;;8.63;;
1376;SDS011;682;52.502;13.488;2023-05-10T03:37:20;7.80;;;7.20;;
1376;SDS011;682;52.502;13.488;2023-05-10T03:39:47;7.00;;;6.40;;
1376;SDS011;682;52.502;13.488;2023-05-10T03:42:15;9.37;;;8.30;;
1376;SDS011;682;52.502;13.488;2023-05-10T03:44:46;7.97;;;6.70;;
1376;SDS011;682;52.502;13.488;2023-05-10T03:47:14;8.23;;;7.40;;
1376;SDS011;682;52.502;13.488;2023-05-10T03:49:41;15.30;;;9.27;;
1376;SDS011;682;52.502;13.488;2023-05-10T03:52:08;7.47;;;6.77;;
1376;SDS011;682;52.502;13.488;2023-05-10T03:54:36;9.23;;;7.10;;
1376;SDS011;682;52.502;13.488;2023-05-10T03:57:03;7.83;;;7.13;;
1376;SDS011;682;52.502;13.488;2023-05-10T03:59:31;8.57;;;7.87;;
1376;SDS011;682;52.502;13.488;2023-05-10T04:02:01;9.20;;;7.77;;
1376;SDS011;682;52.502;13.488;2023-05-10T04:04:28;7.90;;;7.20;;
1376;SDS011;682;52.502;13.488;2023-05-10T04:06:55;9.50;;;6.90;;
1376;SDS011;682;52.502;13.488;2023-05-10T04:09:22;10.70;;;8.13;;
1376;SDS011;682;52.502;13.488;2023-05-10T04:11:50;7.60;;;6.67;;
1376;SDS011;682;52.502;13.488;2023-05-10T04:14:27;7.37;;;6.77;;
1376;SDS011;682;52.502;13.488;2023-05-10T04:16:54;8.53;;;7.50;;
1376;SDS011;682;52.502;13.488;2023-05-10T04:19:22;6.60;;;6.10;;
1376;SDS011;682;52.502;13.488;2023-05-10T04:21:50;8.87;;;6.20;;
1376;SDS011;682;52.502;13.488;2023-05-10T04:24:18;9.30;;;7.47;;
1376;SDS011;682;52.502;13.488;2023-05-10T04:26:45;6.97;;;6.37;;
1376;SDS011;682;52.502;13.488;2023-05-10T04:29:14;8.17;;;7.03;;
1376;SDS011;682;52.502;13.488;2023-05-10T04:31:41;7.10;;;6.50;;
1376;SDS011;682;52.502;13.488;2023-05-10T04:34:09;10.67;;;7.10;;
1376;SDS011;682;52.502;13.488;2023-05-10T04:36:37;8.10;;;6.90;;
1376;SDS011;682;52.502;13.488;2023-05-10T04:39:04;10.40;;;8.80;;
1376;SDS011;682;52.502;13.488;2023-05-10T04:41:31;8.30;;;6.10;;
1376;SDS011;682;52.502;13.488;2023-05-10T04:43:58;6.60;;;5.90;;
1376;SDS011;682;52.502;13.488;2023-05-10T04:46:25;7.67;;;6.50;;
1376;SDS011;682;52.502;13.488;2023-05-10T04:48:52;6.53;;;5.83;;
1376;SDS011;682;52.502;13.488;2023-05-10T04:51:22;8.80;;;7.10;;
1376;SDS011;682;52.502;13.488;2023-05-10T04:53:51;6.73;;;5.93;;
1376;SDS011;682;52.502;13.488;2023-05-10T04:56:18;6.77;;;6.00;;
1376;SDS011;682;52.502;13.488;2023-05-10T04:58:47;8.83;;;6.60;;
1376;SDS011;682;52.502;13.488;2023-05-10T05:01:14;6.27;;;5.67;;
1376;SDS011;682;52.502;13.488;2023-05-10T05:03:41;6.07;;;5.57;;
1376;SDS011;682;52.502;13.488;2023-05-10T05:06:08;9.17;;;6.80;;
1376;SDS011;682;52.502;13.488;2023-05-10T05:08:36;8.43;;;6.00;;
1376;SDS011;682;52.502;13.488;2023-05-10T05:11:04;6.93;;;6.20;;
1376;SDS011;682;52.502;13.488;2023-05-10T05:13:31;7.40;;;5.03;;
1376;SDS011;682;52.502;13.488;2023-05-10T05:15:59;6.03;;;5.47;;
1376;SDS011;682;52.502;13.488;2023-05-10T05:18:28;5.83;;;5.33;;
1376;SDS011;682;52.502;13.488;2023-05-10T05:20:55;6.17;;;5.30;;
1376;SDS011;682;52.502;13.488;2023-05-10T05:23:22;7.53;;;5.60;;
1376;SDS011;682;52.502;13.488;2023-05-10T05:25:51;6.40;;;5.77;;
1376;SDS011;682;52.502;13.488;2023-05-10T05:28:19;7.40;;;6.70;;
1376;SDS011;682;52.502;13.488;2023-05-10T05:30:48;7.33;;;5.10;;
1376;SDS011;682;52.502;13.488;2023-05-10T05:33:15;7.47;;;6.00;;
1376;SDS011;682;52.502;13.488;2023-05-10T05:35:42;8.03;;;5.57;;
1376;SDS011;682;52.502;13.488;2023-05-10T05:38:12;6.40;;;5.23;;
1376;SDS011;682;52.502;13.488;2023-05-10T05:40:40;5.03;;;4.47;;
1376;SDS011;682;52.502;13.488;2023-05-10T05:43:07;8.77;;;5.30;;
1376;SDS011;682;52.502;13.488;2023-05-10T05:45:36;7.60;;;5.30;;
1376;SDS011;682;52.502;13.488;2023-05-10T05:48:03;7.47;;;5.00;;
1376;SDS011;682;52.502;13.488;2023-05-10T05:50:33;12.70;;;5.30;;
1376;SDS011;682;52.502;13.488;2023-05-10T05:53:00;5.73;;;5.13;;
1376;SDS011;682;52.502;13.488;2023-05-10T05:55:29;5.03;;;4.27;;
1376;SDS011;682;52.502;13.488;2023-05-10T05:57:56;7.27;;;5.20;;
1376;SDS011;682;52.502;13.488;2023-05-10T06:00:24;6.10;;;5.23;;
1376;SDS011;682;52.502;13.488;2023-05-10T06:02:52;21.23;;;16.17;;
1376;SDS011;682;52.502;13.488;2023-05-10T06:05:20;6.97;;;4.37;;
1376;SDS011;682;52.502;13.488;2023-05-10T06:07:47;4.77;;;4.27;;
1376;SDS011;682;52.502;13.488;2023-05-10T06:10:15;5.13;;;4.73;;
1376;SDS011;682;52.502;13.488;2023-05-10T06:12:42;4.83;;;4.20;;
1376;SDS011;682;52.502;13.488;2023-05-10T06:15:10;6.40;;;4.30;;
1376;SDS011;682;52.502;13.488;2023-05-10T06:17:37;5.73;;;4.10;;
1376;SDS011;682;52.502;13.488;2023-05-10T06:20:07;11.63;;;8.33;;
1376;SDS011;682;52.502;13.488;2023-05-10T06:22:35;5.67;;;4.87;;
1376;SDS011;682;52.502;13.488;2023-05-10T06:25:02;8.10;;;4.10;;
1376;SDS011;682;52.502;13.488;2023-05-10T06:27:29;4.30;;;4.00;;
1376;SDS011;682;52.502;13.488;2023-05-10T06:29:57;10.23;;;4.20;;
1376;SDS011;682;52.502;13.488;2023-05-10T06:32:24;4.53;;;3.70;;
1376;SDS011;682;52.502;13.488;2023-05-10T06:34:51;5.90;;;4.87;;
1376;SDS011;682;52.502;13.488;2023-05-10T06:37:20;6.23;;;4.20;;
1376;SDS011;682;52.502;13.488;2023-05-10T06:39:47;5.27;;;4.07;;
1376;SDS011;682;52.502;13.488;2023-05-10T06:42:14;8.03;;;4.40;;
1376;SDS011;682;52.502;13.488;2023-05-10T06:44:41;4.93;;;4.00;;
1376;SDS011;682;52.502;13.488;2023-05-10T06:47:08;4.40;;;4.00;;
1376;SDS011;682;52.502;13.488;2023-05-10T06:49:35;7.23;;;3.53;;
1376;SDS011;682;52.502;13.488;2023-05-10T06:52:03;3.87;;;3.57;;
1376;SDS011;682;52.502;13.488;2023-05-10T06:54:32;8.10;;;3.60;;
1376;SDS011;682;52.502;13.488;2023-05-10T06:56:59;9.33;;;5.33;;
1376;SDS011;682;52.502;13.488;2023-05-10T06:59:28;5.73;;;3.77;;
1376;SDS011;682;52.502;13.488;2023-05-10T07:01:56;5.27;;;3.90;;
1376;SDS011;682;52.502;13.488;2023-05-10T07:04:23;5.20;;;3.93;;
1376;SDS011;682;52.502;13.488;2023-05-10T07:06:50;8.30;;;4.73;;
1376;SDS011;682;52.502;13.488;2023-05-10T07:09:18;4.20;;;3.80;;
1376;SDS011;682;52.502;13.488;2023-05-10T07:11:46;5.73;;;4.00;;
1376;SDS011;682;52.502;13.488;2023-05-10T07:14:13;3.80;;;3.50;;
1376;SDS011;682;52.502;13.488;2023-05-10T07:16:40;7.00;;;3.90;;
1376;SDS011;682;52.502;13.488;2023-05-10T07:19:07;6.73;;;4.40;;
1376;SDS011;682;52.502;13.488;2023-05-10T07:21:34;5.00;;;3.17;;
1376;SDS011;682;52.502;13.488;2023-05-10T07:24:02;5.50;;;4.10;;
1376;SDS011;682;52.502;13.488;2023-05-10T07:26:29;6.93;;;4.43;;
1376;SDS011;682;52.502;13.488;2023-05-10T07:28:59;3.80;;;3.47;;
1376;SDS011;682;52.502;13.488;2023-05-10T07:31:26;3.97;;;3.20;;
1376;SDS011;682;52.502;13.488;2023-05-10T07:33:55;8.03;;;4.07;;
1376;SDS011;682;52.502;13.488;2023-05-10T07:36:22;5.57;;;4.40;;
1376;SDS011;682;52.502;13.488;2023-05-10T07:38:49;5.43;;;4.00;;
1376;SDS011;682;52.502;13.488;2023-05-10T07:41:17;9.40;;;3.80;;
1376;SDS011;682;52.502;13.488;2023-05-10T07:43:46;4.37;;;3.97;;
1376;SDS011;682;52.502;13.488;2023-05-10T07:46:15;8.00;;;4.80;;
1376;SDS011;682;52.502;13.488;2023-05-10T07:48:44;5.90;;;3.93;;
1376;SDS011;682;52.502;13.488;2023-05-10T07:51:11;5.87;;;4.10;;
1376;SDS011;682;52.502;13.488;2023-05-10T07:53:38;4.30;;;3.90;;
1376;SDS011;682;52.502;13.488;2023-05-10T07:56:20;4.63;;;3.47;;
1376;SDS011;682;52.502;13.488;2023-05-10T07:58:48;17.57;;;7.90;;
1376;SDS011;682;52.502;13.488;2023-05-10T08:01:16;4.33;;;3.70;;
1376;SDS011;682;52.502;13.488;2023-05-10T08:03:45;4.30;;;3.70;;
1376;SDS011;682;52.502;13.488;2023-05-10T08:06:12;5.73;;;3.50;;
1376;SDS011;682;52.502;13.488;2023-05-10T08:08:40;3.67;;;3.37;;
1376;SDS011;682;52.502;13.488;2023-05-10T08:11:07;5.23;;;3.60;;
1376;SDS011;682;52.502;13.488;2023-05-10T08:13:34;3.97;;;3.60;;
1376;SDS011;682;52.502;13.488;2023-05-10T08:16:03;3.50;;;3.20;;
1376;SDS011;682;52.502;13.488;2023-05-10T08:18:32;4.90;;;3.97;;
1376;SDS011;682;52.502;13.488;2023-05-10T08:20:59;3.47;;;3.17;;
1376;SDS011;682;52.502;13.488;2023-05-10T08:23:26;4.97;;;4.07;;
1376;SDS011;682;52.502;13.488;2023-05-10T08:25:54;4.03;;;3.63;;
1376;SDS011;682;52.502;13.488;2023-05-10T08:28:22;4.90;;;3.60;;
1376;SDS011;682;52.502;13.488;2023-05-10T08:30:49;5.77;;;4.00;;
1376;SDS011;682;52.502;13.488;2023-05-10T08:33:17;3.93;;;3.50;;
1376;SDS011;682;52.502;13.488;2023-05-10T08:35:46;5.20;;;3.83;;
1376;SDS011;682;52.502;13.488;2023-05-10T08:38:13;10.07;;;4.20;;
1376;SDS011;682;52.502;13.488;2023-05-10T08:40:40;4.07;;;3.63;;
1376;SDS011;682;52.502;13.488;2023-05-10T08:43:09;4.40;;;3.37;;
1376;SDS011;682;52.502;13.488;2023-05-10T08:45:38;3.47;;;3.17;;
1376;SDS011;682;52.502;13.488;2023-05-10T08:48:07;4.60;;;4.23;;
1376;SDS011;682;52.502;13.488;2023-05-10T08:50:35;3.80;;;3.50;;
1376;SDS011;682;52.502;13.488;2023-05-10T08:53:05;4.50;;;3.37;;
1376;SDS011;682;52.502;13.488;2023-05-10T08:55:36;5.03;;;3.83;;
1376;SDS011;682;52.502;13.488;2023-05-10T08:58:05;3.33;;;3.03;;
1376;SDS011;682;52.502;13.488;2023-05-10T09:00:32;3.90;;;3.60;;
1376;SDS011;682;52.502;13.488;2023-05-10T09:03:00;3.70;;;3.40;;
1376;SDS011;682;52.502;13.488;2023-05-10T09:05:29;7.40;;;4.17;;
1376;SDS011;682;52.502;13.488;2023-05-10T09:07:56;5.73;;;3.70;;
1376;SDS011;682;52.502;13.488;2023-05-10T09:10:25;3.90;;;3.57;;
1376;SDS011;682;52.502;13.488;2023-05-10T09:12:53;7.77;;;4.97;;
1376;SDS011;682;52.502;13.488;2023-05-10T09:15:22;5.50;;;3.97;;
1376;SDS011;682;52.502;13.488;2023-05-10T09:17:50;4.90;;;3.70;;
1376;SDS011;682;52.502;13.488;2023-05-10T09:20:18;5.00;;;4.00;;
1376;SDS011;682;52.502;13.488;2023-05-10T09:22:46;4.50;;;4.00;;
1376;SDS011;682;52.502;13.488;2023-05-10T09:25:13;6.03;;;4.07;;
1376;SDS011;682;52.502;13.488;2023-05-10T09:27:44;5.63;;;3.70;;
1376;SDS011;682;52.502;13.488;2023-05-10T09:30:15;5.17;;;3.93;;
1376;SDS011;682;52.502;13.488;2023-05-10T09:32:44;4.30;;;3.40;;
1376;SDS011;682;52.502;13.488;2023-05-10T09:35:14;9.00;;;3.80;;
1376;SDS011;682;52.502;13.488;2023-05-10T09:37:43;3.80;;;3.50;;
1376;SDS011;682;52.502;13.488;2023-05-10T09:40:13;3.80;;;3.47;;
1376;SDS011;682;52.502;13.488;2023-05-10T09:42:49;4.43;;;3.70;;
1376;SDS011;682;52.502;13.488;2023-05-10T09:45:18;3.60;;;3.30;;
1376;SDS011;682;52.502;13.488;2023-05-10T09:47:45;4.43;;;4.03;;
1376;SDS011;682;52.502;13.488;2023-05-10T09:50:13;4.20;;;3.80;;
1376;SDS011;682;52.502;13.488;2023-05-10T09:52:47;3.50;;;3.30;;
1376;SDS011;682;52.502;13.488;2023-05-10T09:55:18;3.60;;;3.30;;
1376;SDS011;682;52.502;13.488;2023-05-10T09:57:50;3.50;;;3.20;;
1376;SDS011;682;52.502;13.488;2023-05-10T10:00:25;8.37;;;3.50;;
1376;SDS011;682;52.502;13.488;2023-05-10T10:02:55;4.70;;;3.07;;
1376;SDS011;682;52.502;13.488;2023-05-10T10:05:27;6.27;;;4.53;;
1376;SDS011;682;52.502;13.488;2023-05-10T10:07:55;4.07;;;3.37;;
1376;SDS011;682;52.502;13.488;2023-05-10T10:10:23;6.27;;;3.50;;
1376;SDS011;682;52.502;13.488;2023-05-10T10:12:54;4.57;;;3.20;;
1376;SDS011;682;52.502;13.488;2023-05-10T10:15:22;3.50;;;3.20;;
1376;SDS011;682;52.502;13.488;2023-05-10T10:17:50;4.43;;;3.40;;
1376;SDS011;682;52.502;13.488;2023-05-10T10:20:19;3.80;;;3.50;;
1376;SDS011;682;52.502;13.488;2023-05-10T10:22:50;3.27;;;2.97;;
1376;SDS011;682;52.502;13.488;2023-05-10T10:25:19;3.33;;;3.03;;
1376;SDS011;682;52.502;13.488;2023-05-10T10:27:58;3.17;;;2.80;;
1376;SDS011;682;52.502;13.488;2023-05-10T10:30:38;3.33;;;3.13;;
1376;SDS011;682;52.502;13.488;2023-05-10T10:33:13;3.30;;;3.00;;
1376;SDS011;682;52.502;13.488;2023-05-10T10:35:58;4.00;;;3.67;;
1376;SDS011;682;52.502;13.488;2023-05-10T10:38:35;4.10;;;3.70;;
1376;SDS011;682;52.502;13.488;2023-05-10T10:41:08;4.50;;;3.23;;
1376;SDS011;682;52.502;13.488;2023-05-10T10:43:41;4.27;;;3.37;;
1376;SDS011;682;52.502;13.488;2023-05-10T10:46:09;3.40;;;3.10;;
1376;SDS011;682;52.502;13.488;2023-05-10T10:48:38;3.20;;;3.00;;
1376;SDS011;682;52.502;13.488;2023-05-10T10:51:06;7.20;;;3.07;;
1376;SDS011;682;52.502;13.488;2023-05-10T10:53:34;3.30;;;3.00;;
1376;SDS011;682;52.502;13.488;2023-05-10T10:56:06;3.50;;;3.30;;
1376;SDS011;682;52.502;13.488;2023-05-10T10:58:34;4.53;;;3.77;;
1376;SDS011;682;52.502;13.488;2023-05-10T11:01:14;4.70;;;3.17;;
1376;SDS011;682;52.502;13.488;2023-05-10T11:07:15;5.97;;;3.30;;
1376;SDS011;682;52.502;13.488;2023-05-10T11:09:45;3.27;;;2.97;;
1376;SDS011;682;52.502;13.488;2023-05-10T11:12:13;3.77;;;3.33;;
1376;SDS011;682;52.502;13.488;2023-05-10T11:14:40;4.50;;;3.27;;
1376;SDS011;682;52.502;13.488;2023-05-10T11:17:26;3.90;;;3.40;;
1376;SDS011;682;52.502;13.488;2023-05-10T11:20:06;3.73;;;3.53;;
1376;SDS011;682;52.502;13.488;2023-05-10T11:22:48;5.10;;;3.70;;
1376;SDS011;682;52.502;13.488;2023-05-10T11:25:16;3.80;;;3.00;;
1376;SDS011;682;52.502;13.488;2023-05-10T11:27:44;4.87;;;3.50;;
1376;SDS011;682;52.502;13.488;2023-05-10T11:30:11;4.40;;;3.40;;
1376;SDS011;682;52.502;13.488;2023-05-10T11:32:41;3.60;;;3.20;;
1376;SDS011;682;52.502;13.488;2023-05-10T11:35:09;3.57;;;3.13;;
1376;SDS011;682;52.502;13.488;2023-05-10T11:37:38;3.97;;;3.60;;
1376;SDS011;682;52.502;13.488;2023-05-10T11:40:21;4.53;;;2.90;;
1376;SDS011;682;52.502;13.488;2023-05-10T11:42:49;9.47;;;3.60;;
1376;SDS011;682;52.502;13.488;2023-05-10T11:45:17;3.53;;;3.23;;
1376;SDS011;682;52.502;13.488;2023-05-10T11:47:46;7.00;;;4.37;;
1376;SDS011;682;52.502;13.488;2023-05-10T11:50:16;7.73;;;4.50;;
1376;SDS011;682;52.502;13.488;2023-05-10T11:52:44;10.30;;;4.70;;
1376;SDS011;682;52.502;13.488;2023-05-10T11:55:11;5.53;;;3.57;;
1376;SDS011;682;52.502;13.488;2023-05-10T11:57:38;3.87;;;3.07;;
1376;SDS011;682;52.502;13.488;2023-05-10T12:00:07;4.93;;;3.63;;
1376;SDS011;682;52.502;13.488;2023-05-10T12:02:36;3.47;;;2.63;;
1376;SDS011;682;52.502;13.488;2023-05-10T12:05:08;3.77;;;3.47;;
1376;SDS011;682;52.502;13.488;2023-05-10T12:07:39;6.23;;;3.40;;
1376;SDS011;682;52.502;13.488;2023-05-10T12:10:07;3.90;;;2.87;;
1376;SDS011;682;52.502;13.488;2023-05-10T12:12:37;4.80;;;3.37;;
1376;SDS011;682;52.502;13.488;2023-05-10T12:15:07;4.30;;;2.90;;
1376;SDS011;682;52.502;13.488;2023-05-10T12:17:38;3.93;;;2.93;;
1376;SDS011;682;52.502;13.488;2023-05-10T12:20:17;3.07;;;2.50;;
1376;SDS011;682;52.502;13.488;2023-05-10T12:22:46;5.10;;;2.90;;
1376;SDS011;682;52.502;13.488;2023-05-10T12:25:15;8.23;;;3.40;;
1376;SDS011;682;52.502;13.488;2023-05-10T12:27:52;4.80;;;3.00;;
1376;SDS011;682;52.502;13.488;2023-05-10T12:30:21;5.00;;;2.73;;
1376;SDS011;682;52.502;13.488;2023-05-10T12:32:49;5.40;;;3.00;;
1376;SDS011;682;52.502;13.488;2023-05-10T12:35:18;3.57;;;2.83;;
1376;SDS011;682;52.502;13.488;2023-05-10T12:37:48;4.40;;;4.00;;
1376;SDS011;682;52.502;13.488;2023-05-10T12:40:17;3.83;;;3.10;;
1376;SDS011;682;52.502;13.488;2023-05-10T12:42:45;3.57;;;2.70;;
1376;SDS011;682;52.502;13.488;2023-05-10T12:45:13;5.93;;;5.53;;
1376;SDS011;682;52.502;13.488;2023-05-10T12:47:40;3.67;;;3.17;;
1376;SDS011;682;52.502;13.488;2023-05-10T12:50:09;5.40;;;3.27;;
1376;SDS011;682;52.502;13.488;2023-05-10T12:52:37;6.37;;;2.57;;
1376;SDS011;682;52.502;13.488;2023-05-10T12:55:05;4.40;;;3.20;;
1376;SDS011;682;52.502;13.488;2023-05-10T12:57:34;4.10;;;2.97;;
1376;SDS011;682;52.502;13.488;2023-05-10T13:00:01;3.10;;;2.90;;
1376;SDS011;682;52.502;13.488;2023-05-10T13:02:30;3.30;;;3.10;;
1376;SDS011;682;52.502;13.488;2023-05-10T13:04:57;3.93;;;3.50;;
1376;SDS011;682;52.502;13.488;2023-05-10T13:07:26;5.37;;;3.20;;
1376;SDS011;682;52.502;13.488;2023-05-10T13:09:54;3.27;;;2.97;;
1376;SDS011;682;52.502;13.488;2023-05-10T13:12:21;4.03;;;3.60;;
1376;SDS011;682;52.502;13.488;2023-05-10T13:14:48;4.97;;;2.90;;
1376;SDS011;682;52.502;13.488;2023-05-10T13:17:16;3.83;;;2.60;;
1376;SDS011;682;52.502;13.488;2023-05-10T13:19:43;10.17;;;2.80;;
1376;SDS011;682;52.502;13.488;2023-05-10T13:22:09;3.17;;;2.87;;
1376;SDS011;682;52.502;13.488;2023-05-10T13:24:37;4.50;;;2.97;;
1376;SDS011;682;52.502;13.488;2023-05-10T13:27:05;5.63;;;4.07;;
1376;SDS011;682;52.502;13.488;2023-05-10T13:29:33;3.77;;;3.23;;
1376;SDS011;682;52.502;13.488;2023-05-10T13:32:01;3.87;;;3.20;;
1376;SDS011;682;52.502;13.488;2023-05-10T13:34:28;3.60;;;3.40;;
1376;SDS011;682;52.502;13.488;2023-05-10T13:36:57;3.20;;;2.77;;
1376;SDS011;682;52.502;13.488;2023-05-10T13:39:24;5.50;;;3.70;;
1376;SDS011;682;52.502;13.488;2023-05-10T13:41:51;5.07;;;3.40;;
1376;SDS011;682;52.502;13.488;2023-05-10T13:44:20;3.17;;;2.50;;
1376;SDS011;682;52.502;13.488;2023-05-10T13:46:48;4.60;;;2.47;;
1376;SDS011;682;52.502;13.488;2023-05-10T13:49:16;4.13;;;3.17;;
1376;SDS011;682;52.502;13.488;2023-05-10T13:51:43;4.37;;;3.50;;
1376;SDS011;682;52.502;13.488;2023-05-10T13:54:14;3.83;;;3.47;;
1376;SDS011;682;52.502;13.488;2023-05-10T13:56:44;3.43;;;2.73;;
1376;SDS011;682;52.502;13.488;2023-05-10T13:59:13;4.13;;;3.27;;
1376;SDS011;682;52.502;13.488;2023-05-10T14:01:42;3.07;;;2.43;;
1376;SDS011;682;52.502;13.488;2023-05-10T14:04:09;3.37;;;3.07;;
1376;SDS011;682;52.502;13.488;2023-05-10T14:06:37;3.17;;;2.50;;
1376;SDS011;682;52.502;13.488;2023-05-10T14:09:05;3.70;;;2.97;;
1376;SDS011;682;52.502;13.488;2023-05-10T14:11:33;4.40;;;2.83;;
1376;SDS011;682;52.502;13.488;2023-05-10T14:14:06;4.33;;;3.10;;
1376;SDS011;682;52.502;13.488;2023-05-10T14:16:38;2.57;;;2.37;;
1376;SDS011;682;52.502;13.488;2023-05-10T14:19:11;6.10;;;2.97;;
1376;SDS011;682;52.502;13.488;2023-05-10T14:21:39;2.70;;;2.50;;
1376;SDS011;682;52.502;13.488;2023-05-10T14:24:09;3.27;;;2.87;;
1376;SDS011;682;52.502;13.488;2023-05-10T14:26:37;2.97;;;2.67;;
1376;SDS011;682;52.502;13.488;2023-05-10T14:29:04;2.80;;;2.60;;
1376;SDS011;682;52.502;13.488;2023-05-10T14:31:32;3.30;;;2.50;;
1376;SDS011;682;52.502;13.488;2023-05-10T14:34:00;5.93;;;3.20;;
1376;SDS011;682;52.502;13.488;2023-05-10T14:36:30;2.50;;;2.30;;
1376;SDS011;682;52.502;13.488;2023-05-10T14:38:59;4.07;;;2.73;;
1376;SDS011;682;52.502;13.488;2023-05-10T14:41:31;3.53;;;3.20;;
1376;SDS011;682;52.502;13.488;2023-05-10T14:44:00;2.90;;;2.70;;
1376;SDS011;682;52.502;13.488;2023-05-10T14:46:28;2.53;;;2.33;;
1376;SDS011;682;52.502;13.488;2023-05-10T14:49:01;3.10;;;2.87;;
1376;SDS011;682;52.502;13.488;2023-05-10T14:51:30;2.70;;;2.50;;
1376;SDS011;682;52.502;13.488;2023-05-10T14:53:57;2.53;;;2.33;;
1376;SDS011;682;52.502;13.488;2023-05-10T14:56:24;3.10;;;2.73;;
1376;SDS011;682;52.502;13.488;2023-05-10T14:58:58;5.97;;;2.37;;
1376;SDS011;682;52.502;13.488;2023-05-10T15:01:25;5.40;;;2.80;;
1376;SDS011;682;52.502;13.488;2023-05-10T15:03:52;3.33;;;3.03;;
1376;SDS011;682;52.502;13.488;2023-05-10T15:06:29;3.40;;;2.70;;
1376;SDS011;682;52.502;13.488;2023-05-10T15:08:59;5.87;;;5.47;;
1376;SDS011;682;52.502;13.488;2023-05-10T15:11:26;3.27;;;3.00;;
1376;SDS011;682;52.502;13.488;2023-05-10T15:13:54;7.23;;;2.53;;
1376;SDS011;682;52.502;13.488;2023-05-10T15:16:21;3.27;;;2.97;;
1376;SDS011;682;52.502;13.488;2023-05-10T15:18:48;2.77;;;2.30;;
1376;SDS011;682;52.502;13.488;2023-05-10T15:21:20;5.40;;;3.10;;
1376;SDS011;682;52.502;13.488;2023-05-10T15:23:54;3.50;;;2.90;;
1376;SDS011;682;52.502;13.488;2023-05-10T15:26:21;3.13;;;2.67;;
1376;SDS011;682;52.502;13.488;2023-05-10T15:28:53;4.80;;;3.70;;
1376;SDS011;682;52.502;13.488;2023-05-10T15:31:20;2.70;;;2.50;;
1376;SDS011;682;52.502;13.488;2023-05-10T15:33:48;2.77;;;2.50;;